createdAt,value
2019-03-26T00:01:12.666Z,7.12
2019-03-26T00:03:43.443Z,6.87
2019-03-26T00:06:14.415Z,6.40
2019-03-26T00:08:45.411Z,7.17
2019-03-26T00:11:16.115Z,8.53
2019-03-26T00:13:46.952Z,7.97
2019-03-26T00:16:17.765Z,7.40
2019-03-26T00:18:48.791Z,9.65
2019-03-26T00:21:19.979Z,8.38
2019-03-26T00:23:50.815Z,7.10
2019-03-26T00:26:21.580Z,6.17
2019-03-26T00:28:52.424Z,7.10
2019-03-26T00:31:23.304Z,7.83
2019-03-26T00:33:54.171Z,8.00
2019-03-26T00:36:25.054Z,7.95
2019-03-26T00:38:55.758Z,8.35
2019-03-26T00:41:26.606Z,8.10
2019-03-26T00:43:57.370Z,8.53
2019-03-26T00:46:28.413Z,7.40
2019-03-26T00:48:59.054Z,7.87
2019-03-26T00:51:30.208Z,9.13
2019-03-26T00:54:00.961Z,7.00
2019-03-26T00:56:31.874Z,9.35
2019-03-26T00:59:02.606Z,7.65
2019-03-26T01:01:33.583Z,8.33
2019-03-26T01:04:04.867Z,9.55
2019-03-26T01:06:35.815Z,7.90
2019-03-26T01:09:09.050Z,9.25
2019-03-26T01:11:40.192Z,8.10
2019-03-26T01:14:11.307Z,8.78
2019-03-26T01:16:42.326Z,9.10
2019-03-26T01:19:13.146Z,8.93
2019-03-26T01:21:44.083Z,8.88
2019-03-26T01:24:14.798Z,8.23
2019-03-26T01:26:45.573Z,7.70
2019-03-26T01:29:16.304Z,9.20
2019-03-26T01:31:47.191Z,8.20
2019-03-26T01:34:17.842Z,8.75
2019-03-26T01:36:48.696Z,8.30
2019-03-26T01:39:19.416Z,8.80
2019-03-26T01:41:50.195Z,10.60
2019-03-26T01:44:20.813Z,8.30
2019-03-26T01:46:51.529Z,9.15
2019-03-26T01:49:22.264Z,9.78
2019-03-26T01:51:52.935Z,9.13
2019-03-26T01:54:23.629Z,10.80
2019-03-26T01:56:54.309Z,8.93
2019-03-26T01:59:26.763Z,9.80
2019-03-26T02:01:57.568Z,9.03
2019-03-26T02:04:28.407Z,10.30
2019-03-26T02:06:59.197Z,9.35
2019-03-26T02:09:30.115Z,9.93
2019-03-26T02:12:00.866Z,8.58
2019-03-26T02:14:31.852Z,9.78
2019-03-26T02:17:02.972Z,8.83
2019-03-26T02:19:33.877Z,10.23
2019-03-26T02:22:04.736Z,8.65
2019-03-26T02:24:35.705Z,9.20
2019-03-26T02:27:06.505Z,9.15
2019-03-26T02:29:37.278Z,7.72
2019-03-26T02:32:07.992Z,9.58
2019-03-26T02:34:38.766Z,7.75
2019-03-26T02:37:09.525Z,9.23
2019-03-26T02:39:40.223Z,9.10
2019-03-26T02:42:10.944Z,8.43
2019-03-26T02:44:41.764Z,11.73
2019-03-26T02:47:12.543Z,9.10
2019-03-26T02:49:43.433Z,9.43
2019-03-26T02:52:14.499Z,8.33
2019-03-26T02:54:45.675Z,9.45
2019-03-26T02:57:16.834Z,9.30
2019-03-26T02:59:47.621Z,9.83
2019-03-26T03:02:18.782Z,10.50
2019-03-26T03:04:49.577Z,9.25
2019-03-26T03:07:20.608Z,8.90
2019-03-26T03:09:51.498Z,9.80
2019-03-26T03:12:22.425Z,9.03
2019-03-26T03:14:53.548Z,9.75
2019-03-26T03:17:24.453Z,8.25
2019-03-26T03:19:55.297Z,8.30
2019-03-26T03:22:26.279Z,8.90
2019-03-26T03:24:57.234Z,8.70
2019-03-26T03:27:28.158Z,9.38
2019-03-26T03:29:59.014Z,9.00
2019-03-26T03:32:29.863Z,8.63
2019-03-26T03:35:00.928Z,9.63
2019-03-26T03:37:32.022Z,9.73
2019-03-26T03:40:03.119Z,9.10
2019-03-26T03:42:37.184Z,7.75
2019-03-26T03:45:08.911Z,9.45
2019-03-26T03:47:39.959Z,8.60
2019-03-26T03:50:12.588Z,8.90
2019-03-26T03:52:43.636Z,8.13
2019-03-26T03:55:14.391Z,7.10
2019-03-26T03:57:47.724Z,7.72
2019-03-26T04:00:36.765Z,9.53
2019-03-26T04:03:09.663Z,9.63
2019-03-26T04:05:40.315Z,9.00
2019-03-26T04:08:11.011Z,8.03
2019-03-26T04:10:41.646Z,7.58
2019-03-26T04:13:12.429Z,8.05
2019-03-26T04:15:43.272Z,9.10
2019-03-26T04:18:14.167Z,8.10
2019-03-26T04:20:44.851Z,8.70
2019-03-26T04:23:15.599Z,9.43
2019-03-26T04:25:46.261Z,7.92
2019-03-26T04:28:17.047Z,9.25
2019-03-26T04:30:47.723Z,7.60
2019-03-26T04:33:18.513Z,7.62
2019-03-26T04:35:49.155Z,7.33
2019-03-26T04:38:19.846Z,8.50
2019-03-26T04:40:50.566Z,8.23
2019-03-26T04:43:21.311Z,7.65
2019-03-26T04:45:51.882Z,9.75
2019-03-26T04:48:22.696Z,7.90
2019-03-26T04:50:53.393Z,9.10
2019-03-26T04:53:24.034Z,9.53
2019-03-26T04:55:54.831Z,10.00
2019-03-26T04:58:25.635Z,8.13
2019-03-26T05:00:56.329Z,7.80
2019-03-26T05:03:27.142Z,7.42
2019-03-26T05:06:00.130Z,8.75
2019-03-26T05:08:30.918Z,9.55
2019-03-26T05:11:01.974Z,9.65
2019-03-26T05:13:32.908Z,8.40
2019-03-26T05:16:03.888Z,10.08
2019-03-26T05:18:34.737Z,8.00
2019-03-26T05:21:05.650Z,8.35
2019-03-26T05:23:36.300Z,9.80
2019-03-26T05:26:07.112Z,9.70
2019-03-26T05:28:37.777Z,9.05
2019-03-26T05:31:08.533Z,9.03
2019-03-26T05:33:39.208Z,9.45
2019-03-26T05:36:10.035Z,8.78
2019-03-26T05:38:40.803Z,7.70
2019-03-26T05:41:11.518Z,8.18
2019-03-26T05:43:42.357Z,8.53
2019-03-26T05:46:13.099Z,9.05
2019-03-26T05:48:43.762Z,8.50
2019-03-26T05:51:14.477Z,8.93
2019-03-26T05:53:45.114Z,8.65
2019-03-26T05:56:17.577Z,7.78
2019-03-26T05:58:50.563Z,8.43
2019-03-26T06:01:21.316Z,9.03
2019-03-26T06:03:51.994Z,9.28
2019-03-26T06:06:22.709Z,8.78
2019-03-26T06:08:53.752Z,8.83
2019-03-26T06:11:24.551Z,8.48
2019-03-26T06:13:55.302Z,12.00
2019-03-26T06:16:38.273Z,8.73
2019-03-26T06:19:04.195Z,9.80
2019-03-26T06:21:34.934Z,10.23
2019-03-26T06:24:05.703Z,9.58
2019-03-26T06:26:36.446Z,9.40
2019-03-26T06:29:07.465Z,9.78
2019-03-26T06:31:44.307Z,10.30
2019-03-26T06:34:15.088Z,10.25
2019-03-26T06:36:45.743Z,9.85
2019-03-26T06:39:16.426Z,10.82
2019-03-26T06:41:47.146Z,10.28
2019-03-26T06:44:20.858Z,9.10
2019-03-26T06:46:51.604Z,9.33
2019-03-26T06:49:22.324Z,8.50
2019-03-26T06:51:53.157Z,10.78
2019-03-26T06:54:23.833Z,11.28
2019-03-26T06:56:54.622Z,11.43
2019-03-26T06:59:25.321Z,12.20
2019-03-26T07:01:56.261Z,9.88
2019-03-26T07:04:26.879Z,11.93
2019-03-26T07:06:57.921Z,11.25
2019-03-26T07:09:28.731Z,13.05
2019-03-26T07:11:59.427Z,14.07
2019-03-26T07:14:30.082Z,13.62
2019-03-26T07:17:00.827Z,12.70
2019-03-26T07:19:31.532Z,16.90
2019-03-26T07:22:02.138Z,12.88
2019-03-26T07:24:34.204Z,13.75
2019-03-26T07:27:04.793Z,11.00
2019-03-26T07:29:35.424Z,11.65
2019-03-26T07:32:06.121Z,12.25
2019-03-26T07:34:37.026Z,13.70
2019-03-26T07:37:07.735Z,13.72
2019-03-26T07:39:39.165Z,13.55
2019-03-26T07:42:09.931Z,13.28
2019-03-26T07:44:40.552Z,13.50
2019-03-26T07:47:11.268Z,13.65
2019-03-26T07:49:41.915Z,14.45
2019-03-26T07:52:15.454Z,14.33
2019-03-26T07:54:45.171Z,11.95
2019-03-26T07:57:15.860Z,14.38
2019-03-26T07:59:46.502Z,14.47
2019-03-26T08:02:17.164Z,12.60
2019-03-26T08:04:47.914Z,11.73
2019-03-26T08:07:18.631Z,13.78
2019-03-26T08:09:49.307Z,16.10
2019-03-26T08:12:19.933Z,13.50
2019-03-26T08:14:50.639Z,13.13
2019-03-26T08:17:21.463Z,12.90
2019-03-26T08:19:52.124Z,11.38
2019-03-26T08:22:22.895Z,12.53
2019-03-26T08:24:54.026Z,12.15
2019-03-26T08:27:24.849Z,11.50
2019-03-26T08:29:55.609Z,9.55
2019-03-26T08:32:26.405Z,12.25
2019-03-26T08:34:57.267Z,12.98
2019-03-26T08:37:28.052Z,13.18
2019-03-26T08:39:58.887Z,12.85
2019-03-26T08:42:29.597Z,12.07
2019-03-26T08:45:00.680Z,13.10
2019-03-26T08:47:31.825Z,11.95
2019-03-26T08:50:02.811Z,12.70
2019-03-26T08:52:33.838Z,11.12
2019-03-26T08:55:05.868Z,12.90
2019-03-26T08:57:43.675Z,11.70
2019-03-26T09:00:14.588Z,10.70
2019-03-26T09:02:45.351Z,12.65
2019-03-26T09:05:16.018Z,11.00
2019-03-26T09:07:47.471Z,10.60
2019-03-26T09:10:18.286Z,10.35
2019-03-26T09:12:49.226Z,10.35
2019-03-26T09:15:20.019Z,11.43
2019-03-26T09:17:50.860Z,11.45
2019-03-26T09:20:21.701Z,10.50
2019-03-26T09:22:52.544Z,11.35
2019-03-26T09:25:23.338Z,11.15
2019-03-26T09:27:54.128Z,10.38
2019-03-26T09:30:24.824Z,9.60
2019-03-26T09:32:57.002Z,10.53
2019-03-26T09:35:27.659Z,10.30
2019-03-26T09:37:58.659Z,9.70
2019-03-26T09:40:29.410Z,9.33
2019-03-26T09:43:00.174Z,9.25
2019-03-26T09:45:31.045Z,9.03
2019-03-26T09:48:02.355Z,9.43
2019-03-26T09:50:34.711Z,9.23
2019-03-26T09:53:05.847Z,9.50
2019-03-26T09:55:36.584Z,9.55
2019-03-26T09:58:20.010Z,8.73
2019-03-26T10:00:51.587Z,8.43
2019-03-26T10:03:22.452Z,8.20
2019-03-26T10:05:53.552Z,9.35
2019-03-26T10:08:24.303Z,8.63
2019-03-26T10:10:57.445Z,8.58
2019-03-26T10:13:28.334Z,8.95
2019-03-26T10:16:00.380Z,8.40
2019-03-26T10:18:31.414Z,8.85
2019-03-26T10:21:02.338Z,7.90
2019-03-26T10:23:33.164Z,8.95
2019-03-26T10:26:04.155Z,8.60
2019-03-26T10:28:34.785Z,10.08
2019-03-26T10:31:05.866Z,9.25
2019-03-26T10:33:36.569Z,9.88
2019-03-26T10:36:07.179Z,8.70
2019-03-26T10:38:40.731Z,9.38
2019-03-26T10:41:11.473Z,7.53
2019-03-26T10:43:42.847Z,7.12
2019-03-26T10:46:14.015Z,6.87
2019-03-26T10:48:47.824Z,8.83
2019-03-26T10:51:18.896Z,7.40
2019-03-26T10:53:49.548Z,7.83
2019-03-26T10:56:20.399Z,8.20
2019-03-26T10:58:51.138Z,6.60
2019-03-26T11:01:22.892Z,6.90
2019-03-26T11:03:53.800Z,7.50
2019-03-26T11:06:24.749Z,8.13
2019-03-26T11:08:55.777Z,7.20
2019-03-26T11:11:26.903Z,7.62
2019-03-26T11:13:58.887Z,7.15
2019-03-26T11:16:30.683Z,8.20
2019-03-26T11:19:01.757Z,7.53
2019-03-26T11:21:33.242Z,9.80
2019-03-26T11:24:06.711Z,8.65
2019-03-26T11:26:37.694Z,8.23
2019-03-26T11:29:08.432Z,8.43
2019-03-26T11:31:39.807Z,7.95
2019-03-26T11:34:10.643Z,7.78
2019-03-26T11:36:41.412Z,7.70
2019-03-26T11:39:12.217Z,7.15
2019-03-26T11:41:42.931Z,7.03
2019-03-26T11:44:15.476Z,6.03
2019-03-26T11:46:46.237Z,5.75
2019-03-26T11:49:20.292Z,7.20
2019-03-26T11:51:51.475Z,5.80
2019-03-26T11:54:22.287Z,7.97
2019-03-26T11:56:53.140Z,6.37
2019-03-26T11:59:23.845Z,5.12
2019-03-26T12:01:54.927Z,5.50
2019-03-26T12:04:25.796Z,4.92
2019-03-26T12:06:56.730Z,5.62
2019-03-26T12:09:27.485Z,5.67
2019-03-26T12:12:00.181Z,5.53
2019-03-26T12:14:30.882Z,4.70
2019-03-26T12:17:01.630Z,3.55
2019-03-26T12:19:32.814Z,4.78
2019-03-26T12:22:03.629Z,6.00
2019-03-26T12:24:34.666Z,4.90
2019-03-26T12:27:05.514Z,4.20
2019-03-26T12:29:36.416Z,4.30
2019-03-26T12:32:07.204Z,5.33
2019-03-26T12:34:38.166Z,4.10
2019-03-26T12:37:08.947Z,5.92
2019-03-26T12:39:40.058Z,4.72
2019-03-26T12:42:11.113Z,4.45
2019-03-26T12:44:42.337Z,4.15
2019-03-26T12:47:13.322Z,5.37
2019-03-26T12:49:44.477Z,5.03
2019-03-26T12:52:15.374Z,5.03
2019-03-26T12:54:46.211Z,5.28
2019-03-26T12:57:17.058Z,4.80
2019-03-26T12:59:48.157Z,5.08
2019-03-26T13:02:19.004Z,5.12
2019-03-26T13:04:49.928Z,4.80
2019-03-26T13:07:20.891Z,4.40
2019-03-26T13:09:51.715Z,4.58
2019-03-26T13:12:22.895Z,3.62
2019-03-26T13:14:54.002Z,4.85
2019-03-26T13:17:24.773Z,4.53
2019-03-26T13:19:55.800Z,5.22
2019-03-26T13:22:26.812Z,3.45
2019-03-26T13:24:58.794Z,4.33
2019-03-26T13:27:29.727Z,5.12
2019-03-26T13:30:00.668Z,5.00
2019-03-26T13:32:31.508Z,4.60
2019-03-26T13:35:02.533Z,4.95
2019-03-26T13:37:33.403Z,5.25
2019-03-26T13:40:05.258Z,3.83
2019-03-26T13:42:36.248Z,4.50
2019-03-26T13:45:07.669Z,4.95
2019-03-26T13:47:38.716Z,4.42
2019-03-26T13:50:10.994Z,4.10
2019-03-26T13:52:41.875Z,4.47
2019-03-26T13:55:14.931Z,4.83
2019-03-26T13:57:46.404Z,4.70
2019-03-26T14:00:31.945Z,3.95
2019-03-26T14:03:03.182Z,4.30
2019-03-26T14:05:34.454Z,4.42
2019-03-26T14:08:05.729Z,4.15
2019-03-26T14:10:41.063Z,4.45
2019-03-26T14:13:11.480Z,4.33
2019-03-26T14:15:42.549Z,4.03
2019-03-26T14:18:13.376Z,5.35
2019-03-26T14:20:44.175Z,4.83
2019-03-26T14:23:15.466Z,5.85
2019-03-26T14:25:46.594Z,6.17
2019-03-26T14:28:17.680Z,5.90
2019-03-26T14:30:48.659Z,5.87
2019-03-26T14:33:19.322Z,5.80
2019-03-26T14:35:50.763Z,4.50
2019-03-26T14:38:21.500Z,5.12
2019-03-26T14:40:55.077Z,4.40
2019-03-26T14:43:25.332Z,6.33
2019-03-26T14:45:56.378Z,5.00
2019-03-26T14:48:27.387Z,4.92
2019-03-26T14:50:58.600Z,5.47
2019-03-26T14:53:30.745Z,6.40
2019-03-26T14:56:03.155Z,5.70
2019-03-26T14:58:34.316Z,4.97
2019-03-26T15:01:05.144Z,5.30
2019-03-26T15:03:36.042Z,5.40
2019-03-26T15:06:07.002Z,5.05
2019-03-26T15:08:37.896Z,5.15
2019-03-26T15:11:08.792Z,4.83
2019-03-26T15:13:39.663Z,4.50
2019-03-26T15:16:10.646Z,5.20
2019-03-26T15:18:41.620Z,5.42
2019-03-26T15:21:12.474Z,5.12
2019-03-26T15:23:44.718Z,4.22
2019-03-26T15:26:18.111Z,3.90
2019-03-26T15:28:52.805Z,5.72
2019-03-26T15:31:27.746Z,5.28
2019-03-26T15:33:58.784Z,6.40
2019-03-26T15:36:30.272Z,6.62
2019-03-26T15:39:03.983Z,3.05
2019-03-26T15:41:36.173Z,5.65
2019-03-26T15:44:07.126Z,6.15
2019-03-26T15:46:38.133Z,7.08
2019-03-26T15:49:08.855Z,6.28
2019-03-26T15:51:39.781Z,5.95
2019-03-26T15:54:10.760Z,7.03
2019-03-26T15:56:44.761Z,6.30
2019-03-26T15:59:16.216Z,5.78
2019-03-26T16:01:47.347Z,5.90
2019-03-26T16:04:19.387Z,5.62
2019-03-26T16:06:50.378Z,7.30
2019-03-26T16:09:22.727Z,7.08
2019-03-26T16:11:54.228Z,7.70
2019-03-26T16:14:28.221Z,7.70
2019-03-26T16:16:59.572Z,8.15
2019-03-26T16:19:32.868Z,7.37
2019-03-26T16:22:04.509Z,6.20
2019-03-26T16:24:37.054Z,6.87
2019-03-26T16:27:08.927Z,5.53
2019-03-26T16:29:40.205Z,7.45
2019-03-26T16:32:11.098Z,6.95
2019-03-26T16:34:42.278Z,7.05
2019-03-26T16:37:13.800Z,8.68
2019-03-26T16:39:44.914Z,9.13
2019-03-26T16:42:16.258Z,8.65
2019-03-26T16:44:51.646Z,9.83
2019-03-26T16:47:22.549Z,8.48
2019-03-26T16:49:54.612Z,11.28
2019-03-26T16:52:26.761Z,10.03
2019-03-26T16:54:58.527Z,10.53
2019-03-26T16:57:29.778Z,10.88
2019-03-26T17:00:00.944Z,10.05
2019-03-26T17:02:31.937Z,7.05
2019-03-26T17:05:03.051Z,7.58
2019-03-26T17:07:34.074Z,7.85
2019-03-26T17:10:07.915Z,11.12
2019-03-26T17:12:39.278Z,5.85
2019-03-26T17:15:10.500Z,5.05
2019-03-26T17:17:41.573Z,9.85
2019-03-26T17:20:12.494Z,9.63
2019-03-26T17:22:43.702Z,10.45
2019-03-26T17:25:14.796Z,10.40
2019-03-26T17:27:45.693Z,10.08
2019-03-26T17:30:17.009Z,8.68
2019-03-26T17:32:48.021Z,9.70
2019-03-26T17:35:19.240Z,9.05
2019-03-26T17:37:59.443Z,8.53
2019-03-26T17:40:23.032Z,8.00
2019-03-26T17:42:54.143Z,8.30
2019-03-26T17:45:25.471Z,9.08
2019-03-26T17:47:56.659Z,9.55
2019-03-26T17:50:27.664Z,7.42
2019-03-26T17:52:58.978Z,8.28
2019-03-26T17:55:30.353Z,10.38
2019-03-26T17:58:02.736Z,8.55
2019-03-26T18:00:45.542Z,8.98
2019-03-26T18:03:26.429Z,10.38
2019-03-26T18:05:50.396Z,9.48
2019-03-26T18:08:22.259Z,8.03
2019-03-26T18:10:55.952Z,9.35
2019-03-26T18:13:27.231Z,10.20
2019-03-26T18:15:58.894Z,9.80
2019-03-26T18:18:29.836Z,8.23
2019-03-26T18:21:00.899Z,9.60
2019-03-26T18:23:33.208Z,8.25
2019-03-26T18:26:04.060Z,8.73
2019-03-26T18:28:41.981Z,9.80
2019-03-26T18:31:16.844Z,9.08
2019-03-26T18:33:48.660Z,10.23
2019-03-26T18:36:26.283Z,10.25
2019-03-26T18:39:00.303Z,9.60
2019-03-26T18:41:40.511Z,10.03
2019-03-26T18:44:12.211Z,9.45
2019-03-26T18:46:44.664Z,9.63
2019-03-26T18:49:31.469Z,8.15
2019-03-26T18:52:06.168Z,9.73
2019-03-26T18:55:08.231Z,10.10
2019-03-26T18:57:52.090Z,8.55
2019-03-26T19:00:41.287Z,7.80
2019-03-26T19:03:13.107Z,8.80
2019-03-26T19:05:44.447Z,9.50
2019-03-26T19:08:16.931Z,9.60
2019-03-26T19:10:48.247Z,8.85
2019-03-26T19:13:22.351Z,8.55
2019-03-26T19:16:07.599Z,8.98
2019-03-26T19:18:41.278Z,8.65
2019-03-26T19:21:25.762Z,7.78
2019-03-26T19:24:04.037Z,8.85
2019-03-26T19:26:33.470Z,8.20
2019-03-26T19:29:08.148Z,8.70
2019-03-26T19:31:39.493Z,9.15
2019-03-26T19:34:12.764Z,9.08
2019-03-26T19:36:44.140Z,7.83
2019-03-26T19:39:15.674Z,8.43
2019-03-26T19:41:46.990Z,8.58
2019-03-26T19:44:18.884Z,8.60
2019-03-26T19:46:50.155Z,9.00
2019-03-26T19:49:21.278Z,9.70
2019-03-26T19:51:52.352Z,9.00
2019-03-26T19:54:23.970Z,8.33
2019-03-26T19:56:57.141Z,9.18
2019-03-26T19:59:28.466Z,9.38
2019-03-26T20:01:59.641Z,10.55
2019-03-26T20:04:33.163Z,8.60
2019-03-26T20:07:09.266Z,8.50
2019-03-26T20:09:40.876Z,8.48
2019-03-26T20:12:12.275Z,8.73
2019-03-26T20:14:43.784Z,8.95
2019-03-26T20:17:15.226Z,8.63
2019-03-26T20:19:46.748Z,8.60
2019-03-26T20:22:20.549Z,9.50
2019-03-26T20:24:55.798Z,8.60
2019-03-26T20:27:28.768Z,8.78
2019-03-26T20:30:00.576Z,7.70
2019-03-26T20:32:32.720Z,10.35
2019-03-26T20:35:12.103Z,10.45
2019-03-26T20:37:47.921Z,9.18
2019-03-26T20:40:27.715Z,8.20
2019-03-26T20:43:02.069Z,7.80
2019-03-26T20:45:33.200Z,9.60
2019-03-26T20:48:32.054Z,7.22
2019-03-26T20:51:03.380Z,7.83
2019-03-26T20:53:34.677Z,9.25
2019-03-26T20:56:06.134Z,8.05
2019-03-26T20:58:39.480Z,8.30
2019-03-26T21:01:11.501Z,8.35
2019-03-26T21:03:46.282Z,7.85
2019-03-26T21:06:18.850Z,8.23
2019-03-26T21:08:51.732Z,7.95
2019-03-26T21:11:25.282Z,8.53
2019-03-26T21:13:57.021Z,8.00
2019-03-26T21:16:28.464Z,7.85
2019-03-26T21:19:00.063Z,9.33
2019-03-26T21:21:31.634Z,7.60
2019-03-26T21:24:03.128Z,8.93
2019-03-26T21:26:37.569Z,8.25
2019-03-26T21:29:12.497Z,9.28
2019-03-26T21:31:46.185Z,8.50
2019-03-26T21:34:29.856Z,8.80
2019-03-26T21:36:50.997Z,8.65
2019-03-26T21:39:23.160Z,9.33
2019-03-26T21:41:54.628Z,8.20
2019-03-26T21:44:29.564Z,8.05
2019-03-26T21:47:01.653Z,8.55
2019-03-26T21:49:34.599Z,8.70
2019-03-26T21:52:08.412Z,8.35
2019-03-26T21:54:40.285Z,8.70
2019-03-26T21:57:13.140Z,9.60
2019-03-26T21:59:46.457Z,8.05
2019-03-26T22:02:18.808Z,7.90
2019-03-26T22:04:57.683Z,8.63
2019-03-26T22:07:30.434Z,8.95
2019-03-26T22:10:03.045Z,8.83
2019-03-26T22:12:37.638Z,8.85
2019-03-26T22:15:10.639Z,8.05
2019-03-26T22:17:44.666Z,8.25
2019-03-26T22:20:27.962Z,8.70
2019-03-26T22:23:03.820Z,8.30
2019-03-26T22:25:36.731Z,7.72
2019-03-26T22:28:10.836Z,8.30
2019-03-26T22:30:42.098Z,8.40
2019-03-26T22:33:20.466Z,8.45
2019-03-26T22:35:52.256Z,8.50
2019-03-26T22:38:25.805Z,7.90
2019-03-26T22:40:57.602Z,8.25
2019-03-26T22:43:37.250Z,8.40
2019-03-26T22:46:09.329Z,7.65
2019-03-26T22:48:41.412Z,7.60
2019-03-26T22:51:14.134Z,7.95
2019-03-26T22:53:46.040Z,7.90
2019-03-26T22:56:25.006Z,8.25
2019-03-26T22:58:58.152Z,7.60
2019-03-26T23:01:30.466Z,7.80
2019-03-26T23:04:01.662Z,7.95
2019-03-26T23:06:36.540Z,8.70
2019-03-26T23:09:09.555Z,7.10
2019-03-26T23:11:41.112Z,8.30
2019-03-26T23:14:13.378Z,7.80
2019-03-26T23:16:44.885Z,8.13
2019-03-26T23:19:17.309Z,6.95
2019-03-26T23:21:48.780Z,6.87
2019-03-26T23:24:20.347Z,7.70
2019-03-26T23:26:53.750Z,8.10
2019-03-26T23:29:25.471Z,7.67
2019-03-26T23:31:57.784Z,7.42
2019-03-26T23:34:29.606Z,9.60
2019-03-26T23:37:05.422Z,7.00
2019-03-26T23:39:36.731Z,7.35
2019-03-26T23:42:08.412Z,6.92
2019-03-26T23:44:39.604Z,7.50
2019-03-26T23:47:11.187Z,6.87
2019-03-26T23:49:43.813Z,7.37
2019-03-26T23:52:15.418Z,6.55
2019-03-26T23:54:47.057Z,7.58
2019-03-26T23:57:18.935Z,7.53
2019-03-26T23:59:50.394Z,7.92
